Kugluktuk Airport
CYCO : now visible

Airfield :











YOU CAN JOIN US ON...

 
LOGIN :

Register | Disclaimer

   EN    FR    IT 

 









Legend :    VFR   Marginal VFR   IFR   Intensive IFR   Very Intensive IFR
Visi :
Ceiling :
>= 8 km
>= 3000ft
5 to 8 km
1000 to 3000 ft
1500m to 5 km
500 to 1000 ft
800 to 1500m
200 to 500 ft
< 800m
< 200 ft
Symbols :   Thunderstorms  Fog  Heavy snow  Heavy precipitations  Wind > 20 kt






- Airport Elevation : 74 ft
- IATA code : YCO


CYCO - Kugluktuk

CURRENT METAR :
  • 172000Z 25017KT 15SM IC DRSN FEW240 M25/M31 A3034 RMK CS1 CS TR SLP281

EXPIRED METARs :
  • 171900Z 23016KT 15SM IC DRSN FEW240 M26/M32 A3033 RMK CS1 CS TR SLP278
  • 171824Z 24018KT 15SM IC DRSN FEW120 M26/M31 A3033 RMK AC1 AC TR SLP275
  • 171800Z 24018KT 15SM DRSN FEW120 M26/M31 A3032 RMK AC1 AC TR SLP274

TAF TAF CYCO
Valid from the 17 at 19:00 until the 18 at 07:00 UTC


171838Z 1719/1807 24018KT P6SM FEW120
TEMPO 1719/1807 5SM IC SCT012 RMK NXT FCST BY 180100Z



MET'MAP, your aeronautical weather chart ! - Copyright ORBIFLY December 2007 - Disclaimer

ORBIFLY MET'MAP TEAM :

Programming & Development : Alexandra Zaïnal
Concept & original design : Baudouin d'Aumeries
Assistance for programming : Marc-Olivier Méhu
Technical & hardware support : Manuel Goepfert

Contact : metmap@orbifly.com




SOURCES & CREDITS :

   NOAA       Earth
Advisory